Time;durP1;ratioP1;P1;durP2;ratioP2;P2;SDS_P1;SDS_P2;PMS_P1;PMS_P2;Temp;Humidity;BMP_temperature;BMP_pressure;BME280_temperature;BME280_humidity;BME280_pressure;Samples;Min_cycle;Max_cycle;Signal;HPM_P1;HPM_P2
2023/08/26 00:01:45;;;;;;;2.80;2.60;;;;;;;;;;5107642;27;41040;-83
2023/08/26 00:04:13;;;;;;;2.78;2.22;;;;;;;;;;5107508;27;42639;-82
2023/08/26 00:06:43;;;;;;;3.10;2.80;;;;;;;;;;5107749;27;41867;-82
2023/08/26 00:09:11;;;;;;;4.13;2.88;;;;;;;;;;5107844;27;41625;-82
2023/08/26 00:11:39;;;;;;;3.88;2.83;;;;;;;;;;5106883;27;43074;-82
2023/08/26 00:14:07;;;;;;;3.40;2.53;;;;;;;;;;5107817;27;41297;-83
2023/08/26 00:16:35;;;;;;;3.60;2.70;;;;;;;;;;5107251;27;42674;-83
2023/08/26 00:19:03;;;;;;;3.97;3.30;;;;;;;;;;5106480;27;42010;-83
2023/08/26 00:21:31;;;;;;;3.63;2.97;;;;;;;;;;5106809;27;41563;-83
2023/08/26 00:24:01;;;;;;;3.17;2.70;;;;;;;;;;5107358;27;42714;-82
2023/08/26 00:26:29;;;;;;;2.80;2.60;;;;;;;;;;5106304;27;42268;-83
2023/08/26 00:28:57;;;;;;;3.10;2.70;;;;;;;;;;5106727;28;39854;-83
2023/08/26 00:31:25;;;;;;;3.53;2.65;;;;;;;;;;5107575;28;42271;-83
2023/08/26 00:33:53;;;;;;;2.38;2.17;;;;;;;;;;5107110;27;41329;-83
2023/08/26 00:36:21;;;;;;;2.80;2.10;;;;;;;;;;5106097;28;40942;-83
2023/08/26 00:38:49;;;;;;;2.97;2.67;;;;;;;;;;5105687;28;40743;-83
2023/08/26 00:41:18;;;;;;;2.92;2.22;;;;;;;;;;5106541;28;41132;-83
2023/08/26 00:43:46;;;;;;;3.05;2.78;;;;;;;;;;5110490;27;40252;-83
2023/08/26 00:46:15;;;;;;;3.35;3.03;;;;;;;;;;5105501;27;41542;-82
2023/08/26 00:48:43;;;;;;;5.35;2.42;;;;;;;;;;5107502;27;41994;-83
2023/08/26 00:51:11;;;;;;;2.72;2.50;;;;;;;;;;5105852;28;40726;-83
2023/08/26 00:53:39;;;;;;;2.17;1.95;;;;;;;;;;5104460;28;39972;-83
2023/08/26 00:56:07;;;;;;;2.78;2.53;;;;;;;;;;5107456;28;42227;-82
2023/08/26 00:58:36;;;;;;;3.28;2.58;;;;;;;;;;5105739;27;40514;-83
2023/08/26 01:01:05;;;;;;;2.85;2.45;;;;;;;;;;5105438;27;39900;-83
2023/08/26 01:03:33;;;;;;;2.20;2.00;;;;;;;;;;5104964;27;40199;-83
2023/08/26 01:06:01;;;;;;;2.78;2.15;;;;;;;;;;5106037;27;40580;-82
2023/08/26 01:08:29;;;;;;;2.90;2.53;;;;;;;;;;5104449;28;41313;-83
2023/08/26 01:11:00;;;;;;;2.22;2.03;;;;;;;;;;5106349;28;42672;-83
2023/08/26 01:13:29;;;;;;;2.95;1.95;;;;;;;;;;5122403;27;40603;-83
2023/08/26 01:15:59;;;;;;;2.50;2.30;;;;;;;;;;5106616;28;41334;-83
2023/08/26 01:18:29;;;;;;;1.65;1.55;;;;;;;;;;5105016;27;40328;-82
2023/08/26 01:20:57;;;;;;;2.33;2.13;;;;;;;;;;5106001;27;41570;-83
2023/08/26 01:23:37;;;;;;;2.55;2.13;;;;;;;;;;5104180;28;41683;-77
2023/08/26 01:26:05;;;;;;;2.58;2.33;;;;;;;;;;5105737;28;41844;-83
2023/08/26 01:28:33;;;;;;;2.25;2.05;;;;;;;;;;5105798;27;42002;-83
2023/08/26 01:31:02;;;;;;;1.88;1.65;;;;;;;;;;5105251;28;40456;-83
2023/08/26 01:33:32;;;;;;;2.10;1.95;;;;;;;;;;5105475;27;41839;-83
2023/08/26 01:36:00;;;;;;;2.13;1.85;;;;;;;;;;5104610;28;41238;-83
2023/08/26 01:38:28;;;;;;;2.53;2.08;;;;;;;;;;5104878;27;42148;-83
2023/08/26 01:40:59;;;;;;;3.22;2.55;;;;;;;;;;5105181;28;40742;-83
2023/08/26 01:43:27;;;;;;;2.95;2.45;;;;;;;;;;5104509;27;40969;-83
2023/08/26 01:45:55;;;;;;;2.28;2.08;;;;;;;;;;5105466;27;41493;-83
2023/08/26 01:48:23;;;;;;;3.70;2.55;;;;;;;;;;5106281;28;41479;-83
2023/08/26 01:50:51;;;;;;;2.28;2.05;;;;;;;;;;5106332;27;42669;-83
2023/08/26 01:53:19;;;;;;;2.53;2.17;;;;;;;;;;5109003;27;41142;-83
2023/08/26 01:55:47;;;;;;;2.58;1.83;;;;;;;;;;5109164;27;41115;-83
2023/08/26 01:58:16;;;;;;;2.10;1.85;;;;;;;;;;5107963;27;41881;-83
2023/08/26 02:00:44;;;;;;;2.00;1.75;;;;;;;;;;5108438;27;41107;-83
2023/08/26 02:03:12;;;;;;;2.22;2.03;;;;;;;;;;5108302;28;41336;-84
2023/08/26 02:05:40;;;;;;;2.65;2.20;;;;;;;;;;5107476;27;41743;-83
2023/08/26 02:08:08;;;;;;;1.50;1.40;;;;;;;;;;5109666;28;41188;-83
2023/08/26 02:10:36;;;;;;;2.05;1.90;;;;;;;;;;5108499;28;42532;-83
2023/08/26 02:13:04;;;;;;;1.75;1.65;;;;;;;;;;5108644;28;40630;-83
2023/08/26 02:15:35;;;;;;;1.95;1.52;;;;;;;;;;5107395;28;40053;-83
2023/08/26 02:18:03;;;;;;;1.60;1.50;;;;;;;;;;5109965;27;41299;-83
2023/08/26 02:20:32;;;;;;;1.73;1.50;;;;;;;;;;5108011;27;41651;-83
2023/08/26 02:23:01;;;;;;;1.98;1.70;;;;;;;;;;5108317;27;41599;-83
2023/08/26 02:25:29;;;;;;;2.60;1.90;;;;;;;;;;5123422;27;40749;-83
2023/08/26 02:27:57;;;;;;;3.28;2.72;;;;;;;;;;5109853;27;41365;-83
2023/08/26 02:30:26;;;;;;;2.80;2.30;;;;;;;;;;5108876;28;41773;-84
2023/08/26 02:32:56;;;;;;;1.77;1.67;;;;;;;;;;5107469;28;40857;-83
2023/08/26 02:35:26;;;;;;;2.85;2.50;;;;;;;;;;5108943;28;41169;-84
2023/08/26 02:37:54;;;;;;;3.63;3.33;;;;;;;;;;5109640;28;42090;-83
2023/08/26 02:40:22;;;;;;;3.42;3.13;;;;;;;;;;5108816;28;42718;-83
2023/08/26 02:42:50;;;;;;;2.38;2.17;;;;;;;;;;5109103;28;42341;-83
2023/08/26 02:45:18;;;;;;;2.50;2.00;;;;;;;;;;5108870;27;42205;-83
2023/08/26 02:47:47;;;;;;;2.70;2.50;;;;;;;;;;5108481;27;41948;-83
2023/08/26 02:50:18;;;;;;;1.85;1.73;;;;;;;;;;5107673;28;40367;-83
2023/08/26 02:52:48;;;;;;;1.92;1.50;;;;;;;;;;5106671;28;42763;-83
2023/08/26 02:55:17;;;;;;;3.17;2.65;;;;;;;;;;5109177;28;41461;-84
2023/08/26 02:57:45;;;;;;;2.00;1.63;;;;;;;;;;5107788;27;40263;-84
2023/08/26 03:00:15;;;;;;;2.80;2.35;;;;;;;;;;5107541;27;40792;-84
2023/08/26 03:02:43;;;;;;;2.85;2.40;;;;;;;;;;5107908;27;41587;-83
2023/08/26 03:05:11;;;;;;;2.65;1.92;;;;;;;;;;5109096;28;42146;-83
2023/08/26 03:07:41;;;;;;;4.00;3.17;;;;;;;;;;5106487;28;40553;-83
2023/08/26 03:10:10;;;;;;;1.65;1.55;;;;;;;;;;5107857;28;41506;-83
2023/08/26 03:12:38;;;;;;;1.95;1.70;;;;;;;;;;5107257;27;41736;-83
2023/08/26 03:15:07;;;;;;;2.90;2.65;;;;;;;;;;5106488;28;40776;-83
2023/08/26 03:17:35;;;;;;;2.58;1.80;;;;;;;;;;5106887;28;40307;-83
2023/08/26 03:20:03;;;;;;;2.13;1.88;;;;;;;;;;5109173;28;41873;-83
2023/08/26 03:22:31;;;;;;;5.03;4.25;;;;;;;;;;5106246;27;40561;-83
2023/08/26 03:25:01;;;;;;;2.65;1.95;;;;;;;;;;5108012;28;42259;-83
2023/08/26 03:27:29;;;;;;;3.70;3.05;;;;;;;;;;5107843;28;42135;-82
2023/08/26 03:29:57;;;;;;;1.95;1.65;;;;;;;;;;5106541;28;40222;-83
2023/08/26 03:32:25;;;;;;;1.52;1.27;;;;;;;;;;5102252;28;41518;-82
2023/08/26 03:34:53;;;;;;;6.65;3.40;;;;;;;;;;5108218;28;40811;-83
2023/08/26 03:37:21;;;;;;;5.10;3.47;;;;;;;;;;5106607;28;41208;-83
2023/08/26 03:39:49;;;;;;;2.65;2.17;;;;;;;;;;5108358;28;41592;-83
2023/08/26 03:42:18;;;;;;;1.52;1.35;;;;;;;;;;5106217;27;41510;-83
2023/08/26 03:44:46;;;;;;;2.70;1.90;;;;;;;;;;5107067;28;40319;-83
2023/08/26 03:47:14;;;;;;;2.60;1.90;;;;;;;;;;5106973;28;40102;-83
2023/08/26 03:49:42;;;;;;;3.60;3.28;;;;;;;;;;5106199;28;40882;-84
2023/08/26 03:52:10;;;;;;;2.55;1.73;;;;;;;;;;5108412;28;42312;-83
2023/08/26 03:54:38;;;;;;;2.83;1.42;;;;;;;;;;5107815;27;42051;-83
2023/08/26 03:57:06;;;;;;;5.18;3.60;;;;;;;;;;5106025;28;39516;-84
2023/08/26 03:59:36;;;;;;;3.50;1.98;;;;;;;;;;5106698;28;40875;-83
2023/08/26 04:02:04;;;;;;;2.33;2.13;;;;;;;;;;5107882;28;42038;-83
2023/08/26 04:04:32;;;;;;;2.67;1.70;;;;;;;;;;5105893;27;40180;-83
2023/08/26 04:07:00;;;;;;;1.95;1.63;;;;;;;;;;5107350;28;41366;-83
2023/08/26 04:09:28;;;;;;;1.40;1.25;;;;;;;;;;5106472;27;41705;-83
2023/08/26 04:11:56;;;;;;;3.83;2.22;;;;;;;;;;5105950;27;40601;-83
2023/08/26 04:14:24;;;;;;;2.55;1.70;;;;;;;;;;5105711;27;40854;-83
2023/08/26 04:16:53;;;;;;;2.33;1.65;;;;;;;;;;5107720;28;42858;-84
2023/08/26 04:19:21;;;;;;;1.38;1.27;;;;;;;;;;5114780;27;42200;-83
2023/08/26 04:21:49;;;;;;;1.70;1.30;;;;;;;;;;5108672;27;39646;-84
2023/08/26 04:24:17;;;;;;;3.58;2.85;;;;;;;;;;5104822;27;40394;-84
2023/08/26 04:26:45;;;;;;;3.58;2.03;;;;;;;;;;5110501;27;41387;-83
2023/08/26 04:29:13;;;;;;;2.75;1.85;;;;;;;;;;5116271;27;41049;-83
2023/08/26 04:31:41;;;;;;;2.03;1.75;;;;;;;;;;5105941;28;43050;-84
2023/08/26 04:34:12;;;;;;;1.55;1.10;;;;;;;;;;5106503;27;39944;-84
2023/08/26 04:36:41;;;;;;;2.20;1.70;;;;;;;;;;5107519;27;43227;-84
2023/08/26 04:39:11;;;;;;;2.38;2.17;;;;;;;;;;5105842;28;41582;-84
2023/08/26 04:41:39;;;;;;;1.40;1.30;;;;;;;;;;5106018;28;42285;-85
2023/08/26 04:44:08;;;;;;;3.67;2.10;;;;;;;;;;5106174;28;40349;-85
2023/08/26 04:46:37;;;;;;;1.38;1.00;;;;;;;;;;5104167;28;41836;-84
2023/08/26 04:49:05;;;;;;;1.40;1.17;;;;;;;;;;5105755;28;40634;-84
2023/08/26 04:51:35;;;;;;;1.25;1.15;;;;;;;;;;5107331;27;41710;-85
2023/08/26 04:54:03;;;;;;;1.67;1.17;;;;;;;;;;5106033;27;40972;-85
2023/08/26 04:56:31;;;;;;;1.15;0.98;;;;;;;;;;5122036;27;40324;-84
2023/08/26 04:58:59;;;;;;;1.75;1.15;;;;;;;;;;5105712;27;41998;-84
2023/08/26 05:01:27;;;;;;;1.48;1.17;;;;;;;;;;5106065;28;41098;-84
2023/08/26 05:03:56;;;;;;;1.30;1.20;;;;;;;;;;5106401;27;40236;-84
2023/08/26 05:06:26;;;;;;;1.05;0.80;;;;;;;;;;5105189;27;40802;-84
2023/08/26 05:08:56;;;;;;;1.20;0.95;;;;;;;;;;5107706;27;42480;-85
2023/08/26 05:11:24;;;;;;;1.70;1.00;;;;;;;;;;5113131;27;41637;-84
2023/08/26 05:13:52;;;;;;;1.17;0.90;;;;;;;;;;5111429;27;39840;-84
2023/08/26 05:16:20;;;;;;;1.27;0.93;;;;;;;;;;5107372;27;41180;-84
2023/08/26 05:18:48;;;;;;;0.70;0.68;;;;;;;;;;5105534;28;41573;-85
2023/08/26 05:21:19;;;;;;;1.80;0.90;;;;;;;;;;5105458;28;40967;-84
2023/08/26 05:23:48;;;;;;;1.15;1.05;;;;;;;;;;5104856;28;40238;-84
2023/08/26 05:26:17;;;;;;;1.02;0.93;;;;;;;;;;5108501;27;42687;-84
2023/08/26 05:28:45;;;;;;;1.20;1.00;;;;;;;;;;5125246;27;40005;-84
2023/08/26 05:31:13;;;;;;;1.08;0.90;;;;;;;;;;5108852;27;41583;-84
2023/08/26 05:33:42;;;;;;;1.15;0.82;;;;;;;;;;5094435;27;40658;-84
2023/08/26 05:36:11;;;;;;;1.02;0.63;;;;;;;;;;5109886;27;42548;-84
2023/08/26 05:38:39;;;;;;;0.98;0.95;;;;;;;;;;5116212;27;42141;-85
2023/08/26 05:41:08;;;;;;;0.93;0.82;;;;;;;;;;5116806;27;39879;-85
2023/08/26 05:43:38;;;;;;;1.27;0.65;;;;;;;;;;5107626;27;40866;-85
2023/08/26 05:46:06;;;;;;;2.15;1.30;;;;;;;;;;5108580;27;40691;-85
2023/08/26 05:48:34;;;;;;;0.98;0.70;;;;;;;;;;5118253;27;40778;-84
2023/08/26 05:51:03;;;;;;;1.08;0.80;;;;;;;;;;5109396;27;40990;-85
2023/08/26 05:53:31;;;;;;;0.95;0.75;;;;;;;;;;5109105;28;41699;-85
2023/08/26 05:55:59;;;;;;;0.88;0.68;;;;;;;;;;5109121;27;41231;-85
2023/08/26 05:58:28;;;;;;;1.48;0.75;;;;;;;;;;5108240;28;41481;-84
2023/08/26 06:00:58;;;;;;;2.08;0.80;;;;;;;;;;5114743;27;42945;-84
2023/08/26 06:03:26;;;;;;;1.48;0.73;;;;;;;;;;5112787;27;40291;-84
2023/08/26 06:05:54;;;;;;;0.52;0.50;;;;;;;;;;5116884;27;40657;-84
2023/08/26 06:08:22;;;;;;;1.13;0.55;;;;;;;;;;5117789;27;40062;-84
2023/08/26 06:10:53;;;;;;;1.02;0.60;;;;;;;;;;5112017;27;40932;-85
2023/08/26 06:13:23;;;;;;;0.70;0.60;;;;;;;;;;5121562;27;40779;-85
2023/08/26 06:15:53;;;;;;;2.28;1.17;;;;;;;;;;5110621;27;42197;-84
2023/08/26 06:18:23;;;;;;;0.60;0.50;;;;;;;;;;5112167;27;41073;-84
2023/08/26 06:20:51;;;;;;;1.83;0.70;;;;;;;;;;5110456;27;41982;-84
2023/08/26 06:23:19;;;;;;;1.95;0.52;;;;;;;;;;5109588;28;41592;-85
2023/08/26 06:25:50;;;;;;;0.40;0.40;;;;;;;;;;5107671;28;40681;-83
2023/08/26 06:28:18;;;;;;;1.35;0.50;;;;;;;;;;5107738;28;40047;-84
2023/08/26 06:30:47;;;;;;;0.70;0.70;;;;;;;;;;5102849;28;40431;-83
2023/08/26 06:33:16;;;;;;;0.70;0.50;;;;;;;;;;5108278;27;41375;-84
2023/08/26 06:35:47;;;;;;;0.82;0.50;;;;;;;;;;5109128;27;40263;-84
2023/08/26 06:38:15;;;;;;;0.75;0.43;;;;;;;;;;5107220;27;40545;-84
2023/08/26 06:40:43;;;;;;;0.60;0.60;;;;;;;;;;5129032;27;40811;-85
2023/08/26 06:43:11;;;;;;;0.75;0.50;;;;;;;;;;5113709;27;40844;-85
2023/08/26 06:45:40;;;;;;;1.00;0.60;;;;;;;;;;5105747;27;41155;-85
2023/08/26 06:48:08;;;;;;;1.30;0.52;;;;;;;;;;5109065;27;41485;-85
2023/08/26 06:50:36;;;;;;;0.63;0.57;;;;;;;;;;5108824;27;41736;-85
2023/08/26 06:53:05;;;;;;;0.60;0.50;;;;;;;;;;5107705;27;42227;-77
2023/08/26 06:55:35;;;;;;;0.73;0.57;;;;;;;;;;5108272;27;41453;-71
2023/08/26 06:58:03;;;;;;;2.03;1.00;;;;;;;;;;5113142;27;41287;-71
2023/08/26 07:00:31;;;;;;;1.10;0.80;;;;;;;;;;5108875;27;43205;-71
2023/08/26 07:02:59;;;;;;;3.28;0.80;;;;;;;;;;5109292;28;42184;-71
2023/08/26 07:05:27;;;;;;;3.95;1.00;;;;;;;;;;5111707;27;42685;-71
2023/08/26 07:07:55;;;;;;;5.80;1.10;;;;;;;;;;5108688;27;42173;-71
2023/08/26 07:10:24;;;;;;;2.28;1.00;;;;;;;;;;5115375;27;41460;-71
2023/08/26 07:12:52;;;;;;;4.97;0.98;;;;;;;;;;5116088;27;42901;-71
2023/08/26 07:15:20;;;;;;;5.78;1.30;;;;;;;;;;5107903;27;42285;-71
2023/08/26 07:17:48;;;;;;;4.15;1.20;;;;;;;;;;5106876;27;42214;-71
2023/08/26 07:20:17;;;;;;;3.03;1.08;;;;;;;;;;5095268;28;41666;-71
2023/08/26 07:22:46;;;;;;;3.45;1.10;;;;;;;;;;5106428;27;42185;-71
2023/08/26 07:25:14;;;;;;;6.38;1.63;;;;;;;;;;5106979;27;41696;-72
2023/08/26 07:27:43;;;;;;;5.97;0.95;;;;;;;;;;5107730;27;41927;-71
2023/08/26 07:30:11;;;;;;;4.65;1.20;;;;;;;;;;5104906;28;41221;-71
2023/08/26 07:32:39;;;;;;;3.15;1.10;;;;;;;;;;5107799;27;42054;-71
2023/08/26 07:35:08;;;;;;;2.38;0.98;;;;;;;;;;5107270;27;41561;-71
2023/08/26 07:37:36;;;;;;;4.65;1.40;;;;;;;;;;5110673;27;42270;-70
2023/08/26 07:40:06;;;;;;;4.05;1.42;;;;;;;;;;5117041;27;41780;-65
2023/08/26 07:42:35;;;;;;;6.03;2.10;;;;;;;;;;5113967;27;41531;-70
2023/08/26 07:45:07;;;;;;;7.38;2.03;;;;;;;;;;5114094;27;42715;-74
2023/08/26 07:47:35;;;;;;;5.72;1.90;;;;;;;;;;5121391;27;41220;-75
2023/08/26 07:50:06;;;;;;;6.25;2.10;;;;;;;;;;5114288;27;42212;-74
2023/08/26 07:52:34;;;;;;;4.13;2.10;;;;;;;;;;5115070;27;41986;-77
2023/08/26 07:55:03;;;;;;;7.82;2.35;;;;;;;;;;5106774;27;41299;-77
2023/08/26 07:57:31;;;;;;;10.70;2.53;;;;;;;;;;5108037;27;41271;-77
2023/08/26 07:59:59;;;;;;;6.45;1.90;;;;;;;;;;5114303;27;41654;-74
2023/08/26 08:02:28;;;;;;;5.78;2.63;;;;;;;;;;5106584;27;40786;-74
2023/08/26 08:04:56;;;;;;;6.55;2.30;;;;;;;;;;5107775;27;42592;-73
2023/08/26 08:07:26;;;;;;;4.15;1.90;;;;;;;;;;5107590;27;43050;-77
2023/08/26 08:09:55;;;;;;;5.18;2.20;;;;;;;;;;5107131;27;41510;-71
2023/08/26 08:12:23;;;;;;;7.15;2.17;;;;;;;;;;5109257;27;42717;-69
2023/08/26 08:14:51;;;;;;;9.90;2.17;;;;;;;;;;5113577;27;41886;-64
2023/08/26 08:21:20;;;;;;;23.80;3.78;;;;;;;;;;5119864;27;20584;-73
2023/08/26 08:23:48;;;;;;;6.80;2.42;;;;;;;;;;5093268;28;43247;-72
2023/08/26 08:26:17;;;;;;;13.15;2.70;;;;;;;;;;5108497;28;41317;-75
2023/08/26 08:28:44;;;;;;;12.90;2.65;;;;;;;;;;5108373;28;42831;-70
2023/08/26 08:31:12;;;;;;;11.80;2.58;;;;;;;;;;5100428;28;42900;-70
2023/08/26 08:33:40;;;;;;;9.50;2.65;;;;;;;;;;5103891;28;41357;-70
2023/08/26 08:36:08;;;;;;;6.75;3.13;;;;;;;;;;5104823;27;41508;-71
2023/08/26 08:38:38;;;;;;;8.45;2.17;;;;;;;;;;5103240;27;42058;-71
2023/08/26 08:41:06;;;;;;;7.78;3.38;;;;;;;;;;5104980;27;40254;-70
2023/08/26 08:43:34;;;;;;;9.68;2.50;;;;;;;;;;5104152;28;43126;-71
2023/08/26 08:46:02;;;;;;;22.05;3.35;;;;;;;;;;5104349;28;40387;-73
2023/08/26 08:48:32;;;;;;;15.38;3.00;;;;;;;;;;5104580;28;44193;-71
2023/08/26 08:51:00;;;;;;;9.00;3.25;;;;;;;;;;5117794;27;42100;-72
2023/08/26 08:53:29;;;;;;;8.98;2.85;;;;;;;;;;5104567;27;41237;-71
2023/08/26 08:56:00;;;;;;;10.32;2.88;;;;;;;;;;5102830;27;41537;-71
2023/08/26 08:58:28;;;;;;;19.00;3.58;;;;;;;;;;5103769;27;42721;-71
2023/08/26 09:00:56;;;;;;;8.50;3.72;;;;;;;;;;5104362;27;41493;-70
2023/08/26 09:03:24;;;;;;;10.85;2.92;;;;;;;;;;5104148;28;42060;-71
2023/08/26 09:05:52;;;;;;;6.03;3.05;;;;;;;;;;5101651;27;40053;-71
2023/08/26 09:08:20;;;;;;;5.15;2.50;;;;;;;;;;5103826;27;41216;-71
2023/08/26 09:10:48;;;;;;;4.18;2.60;;;;;;;;;;5098445;27;43098;-71
2023/08/26 09:13:17;;;;;;;4.25;2.13;;;;;;;;;;5103118;28;41385;-71
2023/08/26 09:15:46;;;;;;;9.63;2.85;;;;;;;;;;5103601;28;42542;-69
2023/08/26 09:18:15;;;;;;;7.22;2.38;;;;;;;;;;5104308;28;43172;-70
2023/08/26 09:20:46;;;;;;;5.72;2.38;;;;;;;;;;5101309;28;38545;-69
2023/08/26 09:23:14;;;;;;;4.90;2.65;;;;;;;;;;5101075;28;42506;-69
2023/08/26 09:25:50;;;;;;;11.52;2.72;;;;;;;;;;5103902;28;42003;-68
2023/08/26 09:28:20;;;;;;;8.05;2.20;;;;;;;;;;5101004;28;41335;-71
2023/08/26 09:31:01;;;;;;;8.05;2.20;;;;;;;;;;5100802;28;43107;-70
2023/08/26 09:33:29;;;;;;;4.28;1.80;;;;;;;;;;5089115;28;41201;-71
2023/08/26 09:35:58;;;;;;;4.32;2.05;;;;;;;;;;5090110;28;41214;-70
2023/08/26 09:38:31;;;;;;;6.50;2.20;;;;;;;;;;5081868;28;42114;-70
2023/08/26 09:40:59;;;;;;;4.22;1.40;;;;;;;;;;5083445;28;41358;-69
2023/08/26 09:43:28;;;;;;;5.20;1.73;;;;;;;;;;5087539;28;41874;-69
2023/08/26 09:45:57;;;;;;;6.70;2.13;;;;;;;;;;5080534;28;43459;-69
2023/08/26 09:48:25;;;;;;;2.60;1.65;;;;;;;;;;5086836;28;40309;-69
2023/08/26 09:50:53;;;;;;;7.63;1.83;;;;;;;;;;5088512;28;41516;-69
2023/08/26 09:53:32;;;;;;;5.15;1.80;;;;;;;;;;5089522;28;40360;-69
2023/08/26 09:56:00;;;;;;;3.15;1.83;;;;;;;;;;5087593;28;41657;-69
2023/08/26 09:58:30;;;;;;;4.40;1.40;;;;;;;;;;5086655;28;40825;-69
2023/08/26 10:00:58;;;;;;;3.95;1.60;;;;;;;;;;5086792;28;39441;-69
2023/08/26 10:03:26;;;;;;;5.32;1.80;;;;;;;;;;5087801;28;41942;-69
2023/08/26 10:05:54;;;;;;;5.30;1.83;;;;;;;;;;5082675;28;42256;-69
2023/08/26 10:08:26;;;;;;;3.75;1.50;;;;;;;;;;5079121;28;40630;-69
2023/08/26 10:10:54;;;;;;;4.45;1.40;;;;;;;;;;5082700;28;41423;-69
2023/08/26 10:13:23;;;;;;;3.22;1.65;;;;;;;;;;5089285;28;40227;-69
2023/08/26 10:15:53;;;;;;;4.35;1.65;;;;;;;;;;5089842;28;42547;-69
2023/08/26 10:18:24;;;;;;;5.20;1.42;;;;;;;;;;5071824;28;41679;-69
2023/08/26 10:20:52;;;;;;;3.15;1.52;;;;;;;;;;5082037;28;40908;-69
2023/08/26 10:23:20;;;;;;;4.28;1.52;;;;;;;;;;5088247;28;42525;-69
2023/08/26 10:25:50;;;;;;;7.18;1.85;;;;;;;;;;5080615;28;42260;-68
2023/08/26 10:28:19;;;;;;;6.68;1.70;;;;;;;;;;5088227;28;40386;-69
2023/08/26 10:30:47;;;;;;;6.32;1.90;;;;;;;;;;5088459;28;42141;-68
2023/08/26 10:33:18;;;;;;;14.77;2.38;;;;;;;;;;5089232;28;33927;-68
2023/08/26 10:35:57;;;;;;;4.85;1.55;;;;;;;;;;5088598;28;41839;-69
2023/08/26 10:38:25;;;;;;;5.63;1.90;;;;;;;;;;5084934;28;41823;-69
2023/08/26 10:41:10;;;;;;;4.20;1.80;;;;;;;;;;5074864;28;39832;-69
2023/08/26 10:43:38;;;;;;;5.38;1.35;;;;;;;;;;5081995;28;41114;-69
2023/08/26 10:46:05;;;;;;;3.95;1.50;;;;;;;;;;5087889;28;42813;-69
2023/08/26 10:48:48;;;;;;;4.75;1.50;;;;;;;;;;5087857;28;40496;-68
2023/08/26 10:51:18;;;;;;;7.05;1.55;;;;;;;;;;5082517;28;41468;-68
2023/08/26 10:53:46;;;;;;;4.85;1.27;;;;;;;;;;5087398;28;41722;-68
2023/08/26 10:56:14;;;;;;;4.10;1.65;;;;;;;;;;5088472;28;41661;-69
2023/08/26 10:58:42;;;;;;;3.92;1.60;;;;;;;;;;5086024;28;40572;-68
2023/08/26 11:01:10;;;;;;;6.80;1.27;;;;;;;;;;5087405;28;38254;-70
2023/08/26 11:03:38;;;;;;;6.72;1.70;;;;;;;;;;5088627;28;41477;-70
2023/08/26 11:06:08;;;;;;;5.18;1.55;;;;;;;;;;5088180;28;41660;-69
2023/08/26 11:08:38;;;;;;;3.03;1.30;;;;;;;;;;5088084;28;41338;-70
2023/08/26 11:11:06;;;;;;;3.35;1.20;;;;;;;;;;5085632;28;42121;-69
2023/08/26 11:13:34;;;;;;;12.85;1.48;;;;;;;;;;5083217;28;41738;-70
2023/08/26 11:16:03;;;;;;;6.50;1.38;;;;;;;;;;5086964;28;40358;-69
2023/08/26 11:18:31;;;;;;;3.78;1.20;;;;;;;;;;5079774;28;41747;-69
2023/08/26 11:21:00;;;;;;;4.28;1.40;;;;;;;;;;5087051;28;40855;-69
2023/08/26 11:23:28;;;;;;;3.75;1.02;;;;;;;;;;5087512;28;41353;-68
2023/08/26 11:25:57;;;;;;;6.28;1.15;;;;;;;;;;5088014;28;42108;-69
2023/08/26 11:28:26;;;;;;;2.15;1.20;;;;;;;;;;5087790;28;39705;-68
2023/08/26 11:30:54;;;;;;;3.22;0.98;;;;;;;;;;5088332;28;41370;-68
2023/08/26 11:33:22;;;;;;;5.88;1.35;;;;;;;;;;5087136;28;42519;-68
2023/08/26 11:35:50;;;;;;;2.63;1.10;;;;;;;;;;5088863;28;39693;-69
2023/08/26 11:38:35;;;;;;;6.13;1.23;;;;;;;;;;5085813;28;41443;-68
2023/08/26 11:41:05;;;;;;;2.63;1.10;;;;;;;;;;5087787;28;40990;-69
2023/08/26 11:43:34;;;;;;;4.05;1.13;;;;;;;;;;5087478;28;41928;-68
2023/08/26 11:46:02;;;;;;;3.60;0.95;;;;;;;;;;5086987;28;42352;-69
2023/08/26 11:48:30;;;;;;;2.83;0.95;;;;;;;;;;5086862;28;41385;-68
2023/08/26 11:51:00;;;;;;;4.43;1.00;;;;;;;;;;5088247;28;41547;-68
2023/08/26 11:53:28;;;;;;;9.18;1.90;;;;;;;;;;5087195;28;43501;-69
2023/08/26 11:55:56;;;;;;;2.63;0.98;;;;;;;;;;5087059;28;40256;-68
2023/08/26 11:58:26;;;;;;;3.40;1.10;;;;;;;;;;5088268;28;42541;-68
2023/08/26 12:00:56;;;;;;;3.05;0.95;;;;;;;;;;5088374;28;42720;-68
2023/08/26 12:03:24;;;;;;;3.85;1.00;;;;;;;;;;5087319;28;41869;-68
2023/08/26 12:05:53;;;;;;;3.67;1.05;;;;;;;;;;5087946;28;41913;-68
2023/08/26 12:08:21;;;;;;;2.78;0.75;;;;;;;;;;5087014;28;41328;-68
2023/08/26 12:10:49;;;;;;;2.40;0.88;;;;;;;;;;5088209;27;42226;-68
2023/08/26 12:13:17;;;;;;;1.90;0.88;;;;;;;;;;5087903;28;42060;-69
2023/08/26 12:15:46;;;;;;;1.38;0.88;;;;;;;;;;5085102;28;39600;-69
2023/08/26 12:18:15;;;;;;;3.17;1.00;;;;;;;;;;5087698;28;42710;-69
2023/08/26 12:20:44;;;;;;;1.60;0.75;;;;;;;;;;5085220;28;40424;-69
2023/08/26 12:23:13;;;;;;;1.65;0.90;;;;;;;;;;5086795;28;39645;-68
2023/08/26 12:25:41;;;;;;;2.25;0.90;;;;;;;;;;5087116;28;41696;-69
2023/08/26 12:28:10;;;;;;;2.38;0.90;;;;;;;;;;5087460;28;40179;-69
2023/08/26 12:30:38;;;;;;;1.40;0.77;;;;;;;;;;5086271;28;41488;-69
2023/08/26 12:33:07;;;;;;;0.98;0.70;;;;;;;;;;5087457;28;42308;-68
2023/08/26 12:35:51;;;;;;;2.75;0.90;;;;;;;;;;5085176;28;40633;-69
2023/08/26 12:38:19;;;;;;;2.03;0.80;;;;;;;;;;5087136;28;42398;-69
2023/08/26 12:40:47;;;;;;;2.40;0.73;;;;;;;;;;5086883;28;42788;-68
2023/08/26 12:43:18;;;;;;;2.88;0.80;;;;;;;;;;5087222;28;41379;-69
2023/08/26 12:45:46;;;;;;;2.83;1.02;;;;;;;;;;5087113;28;44396;-69
2023/08/26 12:48:16;;;;;;;2.42;0.80;;;;;;;;;;5087633;28;39792;-69
2023/08/26 12:51:05;;;;;;;2.38;0.90;;;;;;;;;;5083886;28;41008;-69
2023/08/26 12:53:33;;;;;;;3.45;0.85;;;;;;;;;;5086282;28;42263;-69
2023/08/26 12:56:01;;;;;;;1.63;0.80;;;;;;;;;;5086535;28;40984;-69
2023/08/26 12:58:29;;;;;;;1.17;0.50;;;;;;;;;;5084474;28;40114;-69
2023/08/26 13:00:57;;;;;;;3.90;0.90;;;;;;;;;;5081516;28;41914;-68
2023/08/26 13:03:27;;;;;;;2.63;0.90;;;;;;;;;;5085183;28;41343;-68
2023/08/26 13:05:56;;;;;;;6.63;1.00;;;;;;;;;;5079125;28;42529;-69
2023/08/26 13:08:24;;;;;;;12.98;0.85;;;;;;;;;;5085116;28;41035;-69
2023/08/26 13:10:53;;;;;;;13.32;1.10;;;;;;;;;;5086450;28;42481;-69
2023/08/26 13:13:21;;;;;;;6.60;1.30;;;;;;;;;;5089202;28;42193;-69
2023/08/26 13:15:49;;;;;;;12.90;1.40;;;;;;;;;;5089984;28;39960;-69
2023/08/26 13:18:17;;;;;;;11.60;0.90;;;;;;;;;;5089900;28;41586;-69
2023/08/26 13:20:47;;;;;;;6.20;0.90;;;;;;;;;;5085910;28;42700;-69
2023/08/26 13:23:15;;;;;;;6.20;1.00;;;;;;;;;;5091884;28;41086;-69
2023/08/26 13:25:43;;;;;;;3.97;0.65;;;;;;;;;;5089962;28;42134;-69
2023/08/26 13:28:11;;;;;;;15.60;1.48;;;;;;;;;;5089008;28;42882;-69
2023/08/26 13:30:40;;;;;;;8.60;0.90;;;;;;;;;;5089245;28;41523;-69
2023/08/26 13:33:08;;;;;;;7.20;1.00;;;;;;;;;;5088622;28;43057;-69
2023/08/26 13:35:36;;;;;;;3.70;0.70;;;;;;;;;;5089865;28;40855;-69
2023/08/26 13:38:05;;;;;;;5.50;1.00;;;;;;;;;;5089364;28;41840;-69
2023/08/26 13:40:33;;;;;;;4.40;0.90;;;;;;;;;;5082422;28;41715;-69
2023/08/26 13:43:01;;;;;;;11.52;1.08;;;;;;;;;;5089731;28;40247;-69
2023/08/26 13:45:29;;;;;;;9.15;1.20;;;;;;;;;;5089233;28;42170;-69
2023/08/26 13:47:58;;;;;;;13.05;1.50;;;;;;;;;;5089518;28;41501;-69
2023/08/26 13:50:28;;;;;;;9.60;1.02;;;;;;;;;;5089735;28;41041;-69
2023/08/26 13:52:56;;;;;;;10.02;1.40;;;;;;;;;;5089863;28;42049;-69
2023/08/26 13:55:26;;;;;;;12.30;0.93;;;;;;;;;;5088885;28;40119;-71
2023/08/26 13:57:54;;;;;;;26.52;2.03;;;;;;;;;;5076321;28;41546;-71
2023/08/26 14:00:23;;;;;;;10.57;1.10;;;;;;;;;;5089232;28;43490;-70
2023/08/26 14:02:51;;;;;;;12.90;1.10;;;;;;;;;;5088147;28;40192;-70
2023/08/26 14:05:19;;;;;;;14.43;1.50;;;;;;;;;;5090088;28;41528;-70
2023/08/26 14:07:50;;;;;;;14.82;1.25;;;;;;;;;;5083096;28;43061;-70
2023/08/26 14:10:18;;;;;;;16.67;1.60;;;;;;;;;;5084085;28;41294;-70
2023/08/26 14:12:47;;;;;;;7.35;1.02;;;;;;;;;;5089750;28;40983;-70
2023/08/26 14:15:15;;;;;;;15.43;1.23;;;;;;;;;;5089286;28;40653;-71
2023/08/26 14:17:43;;;;;;;3.05;1.02;;;;;;;;;;5089232;28;41741;-70
2023/08/26 14:20:15;;;;;;;5.88;1.30;;;;;;;;;;5088414;28;42639;-71
2023/08/26 14:22:43;;;;;;;6.63;0.95;;;;;;;;;;5088387;28;40864;-69
2023/08/26 14:25:11;;;;;;;10.65;1.05;;;;;;;;;;5089818;28;42163;-69
2023/08/26 14:27:39;;;;;;;6.53;1.00;;;;;;;;;;5088907;28;43078;-69
2023/08/26 14:30:09;;;;;;;6.07;1.40;;;;;;;;;;5088853;28;41293;-70
2023/08/26 14:32:37;;;;;;;6.85;1.73;;;;;;;;;;5089553;28;42875;-69
2023/08/26 14:35:06;;;;;;;8.85;1.30;;;;;;;;;;5089547;28;42851;-69
2023/08/26 14:37:35;;;;;;;6.10;0.80;;;;;;;;;;5086554;28;41146;-69
2023/08/26 14:40:03;;;;;;;2.53;0.80;;;;;;;;;;5090229;28;41977;-69
2023/08/26 14:42:32;;;;;;;2.33;0.77;;;;;;;;;;5088373;28;40012;-69
2023/08/26 14:45:00;;;;;;;6.68;1.00;;;;;;;;;;5088528;28;43083;-70
2023/08/26 14:47:29;;;;;;;3.05;0.65;;;;;;;;;;5088308;28;42039;-70
2023/08/26 14:49:57;;;;;;;4.07;0.70;;;;;;;;;;5089020;28;40223;-70
2023/08/26 14:52:25;;;;;;;3.03;0.73;;;;;;;;;;5089236;28;42489;-70
2023/08/26 14:54:53;;;;;;;8.10;1.20;;;;;;;;;;5089781;28;42432;-70
2023/08/26 14:57:21;;;;;;;4.18;1.05;;;;;;;;;;5088046;28;41508;-70